createdAt,value
2022-10-28T00:00:56.759Z,93.80
2022-10-28T00:03:24.601Z,93.80
2022-10-28T00:05:54.610Z,93.60
2022-10-28T00:08:23.030Z,93.60
2022-10-28T00:10:50.519Z,93.40
2022-10-28T00:13:18.009Z,93.30
2022-10-28T00:15:45.546Z,93.80
2022-10-28T00:18:13.085Z,93.80
2022-10-28T00:20:40.621Z,93.70
2022-10-28T00:23:08.173Z,93.40
2022-10-28T00:25:36.467Z,93.40
2022-10-28T00:28:05.753Z,93.00
2022-10-28T00:30:33.505Z,93.00
2022-10-28T00:33:01.126Z,93.10
2022-10-28T00:35:29.033Z,92.90
2022-10-28T00:37:56.530Z,92.90
2022-10-28T00:40:24.887Z,92.90
2022-10-28T00:42:53.531Z,92.60
2022-10-28T00:45:22.126Z,92.50
2022-10-28T00:47:55.791Z,92.50
2022-10-28T00:50:42.791Z,92.50
2022-10-28T00:53:16.962Z,92.70
2022-10-28T00:55:45.652Z,92.80
2022-10-28T00:58:14.364Z,92.60
2022-10-28T01:00:42.873Z,92.50
2022-10-28T01:03:11.688Z,92.30
2022-10-28T01:05:42.158Z,92.20
2022-10-28T01:08:10.791Z,92.20
2022-10-28T01:10:38.597Z,92.20
2022-10-28T01:13:24.664Z,91.90
2022-10-28T01:16:18.360Z,91.80
2022-10-28T01:18:53.601Z,91.80
2022-10-28T01:21:25.082Z,91.60
2022-10-28T01:23:53.117Z,91.40
2022-10-28T01:26:23.786Z,90.60
2022-10-28T01:28:51.518Z,90.90
2022-10-28T01:31:41.686Z,90.70
2022-10-28T01:34:25.077Z,90.50
2022-10-28T01:37:07.173Z,90.70
2022-10-28T01:39:38.896Z,90.70
2022-10-28T01:42:06.487Z,90.40
2022-10-28T01:44:54.549Z,90.60
2022-10-28T01:47:32.027Z,89.60
2022-10-28T01:50:04.141Z,90.40
2022-10-28T01:52:32.648Z,90.20
2022-10-28T01:55:09.099Z,90.00
2022-10-28T01:57:39.664Z,90.20
2022-10-28T02:00:07.676Z,90.10
2022-10-28T02:02:38.103Z,90.10
2022-10-28T02:05:26.275Z,90.10
2022-10-28T02:07:57.985Z,90.10
2022-10-28T02:10:33.336Z,89.70
2022-10-28T02:13:04.198Z,88.70
2022-10-28T02:15:35.134Z,89.50
2022-10-28T02:18:14.989Z,89.60
2022-10-28T02:20:54.859Z,89.10
2022-10-28T02:23:25.491Z,89.30
2022-10-28T02:25:57.943Z,87.40
2022-10-28T02:29:03.901Z,88.90
2022-10-28T02:31:37.530Z,87.70
2022-10-28T02:34:08.841Z,86.40
2022-10-28T02:36:39.774Z,86.80
2022-10-28T02:39:08.767Z,86.00
2022-10-28T02:41:49.446Z,87.70
2022-10-28T02:44:22.928Z,84.90
2022-10-28T02:46:51.909Z,87.70
2022-10-28T02:49:19.694Z,87.50
2022-10-28T02:51:50.896Z,85.70
2022-10-28T02:54:21.674Z,87.20
2022-10-28T02:56:52.296Z,84.80
2022-10-28T02:59:22.105Z,83.40
2022-10-28T03:01:50.825Z,85.40
2022-10-28T03:04:18.821Z,82.80
2022-10-28T03:06:46.439Z,82.60
2022-10-28T03:09:15.474Z,81.90
2022-10-28T03:11:43.195Z,82.60
2022-10-28T03:14:13.299Z,83.20
2022-10-28T03:16:43.677Z,83.10
2022-10-28T03:19:12.213Z,84.80
2022-10-28T03:21:41.505Z,84.80
2022-10-28T03:24:10.909Z,80.10
2022-10-28T03:26:39.471Z,82.30
2022-10-28T03:29:08.745Z,78.90
2022-10-28T03:31:36.749Z,83.30
2022-10-28T03:34:05.107Z,81.70
2022-10-28T03:36:32.719Z,80.30
2022-10-28T03:39:00.549Z,76.70
2022-10-28T03:41:29.473Z,80.00
2022-10-28T03:43:57.241Z,80.30
2022-10-28T03:46:26.394Z,80.30
2022-10-28T03:48:54.347Z,75.90
2022-10-28T03:51:23.025Z,74.50
2022-10-28T03:53:50.918Z,74.20
2022-10-28T03:56:22.713Z,76.90
2022-10-28T04:01:18.769Z,77.70
2022-10-28T04:03:47.486Z,77.50
2022-10-28T04:06:15.349Z,77.80
2022-10-28T04:08:44.178Z,75.10
2022-10-28T04:11:12.773Z,75.50
2022-10-28T04:13:40.792Z,73.00
2022-10-28T04:16:09.679Z,75.50
2022-10-28T04:18:38.146Z,75.50
2022-10-28T04:21:05.963Z,75.60
2022-10-28T04:23:33.826Z,75.80
2022-10-28T04:26:02.213Z,77.20
2022-10-28T04:28:33.067Z,73.00
2022-10-28T04:31:03.291Z,75.40
2022-10-28T04:33:31.788Z,69.40
2022-10-28T04:35:59.373Z,73.00
2022-10-28T04:38:27.319Z,69.60
2022-10-28T04:40:55.062Z,70.30
2022-10-28T04:43:24.441Z,70.40
2022-10-28T04:45:52.117Z,74.30
2022-10-28T04:48:19.666Z,74.60
2022-10-28T04:50:47.585Z,71.30
2022-10-28T04:53:21.290Z,69.20
2022-10-28T04:55:52.682Z,66.90
2022-10-28T04:58:21.278Z,69.20
2022-10-28T05:00:49.661Z,68.60
2022-10-28T05:03:17.842Z,60.90
2022-10-28T05:05:45.555Z,64.40
2022-10-28T05:08:13.200Z,64.90
2022-10-28T05:10:41.374Z,71.60
2022-10-28T05:13:09.813Z,69.20
2022-10-28T05:15:39.482Z,70.90
2022-10-28T05:18:07.016Z,71.80
2022-10-28T05:20:34.852Z,67.60
2022-10-28T05:23:03.575Z,68.60
2022-10-28T05:25:31.342Z,66.90
2022-10-28T05:28:00.637Z,65.70
2022-10-28T05:30:29.887Z,64.90
2022-10-28T05:33:06.867Z,71.30
2022-10-28T05:35:35.414Z,64.00
2022-10-28T05:38:03.208Z,69.50
2022-10-28T05:40:33.171Z,71.70
2022-10-28T05:43:01.701Z,71.70
2022-10-28T05:47:58.705Z,62.90
2022-10-28T05:50:27.040Z,69.50
2022-10-28T05:52:56.179Z,68.70
2022-10-28T05:55:25.249Z,63.70
2022-10-28T05:57:53.460Z,64.20
2022-10-28T06:00:22.877Z,62.50
2022-10-28T06:02:56.477Z,63.30
2022-10-28T06:05:24.639Z,66.80
2022-10-28T06:07:52.253Z,66.30
2022-10-28T06:10:21.987Z,68.80
2022-10-28T06:12:48.326Z,66.60
2022-10-28T06:15:15.911Z,70.10
2022-10-28T06:17:46.793Z,68.80
2022-10-28T06:20:14.735Z,68.40
2022-10-28T06:22:48.681Z,66.00
2022-10-28T06:25:17.079Z,64.90
2022-10-28T06:27:46.228Z,62.80
2022-10-28T06:30:14.325Z,59.80
2022-10-28T06:32:41.830Z,64.00
2022-10-28T06:35:09.423Z,64.60
2022-10-28T06:37:37.563Z,64.10
2022-10-28T06:40:05.733Z,61.00
2022-10-28T06:42:33.781Z,62.40
2022-10-28T06:45:01.862Z,62.40
2022-10-28T06:47:31.024Z,61.20
2022-10-28T06:49:58.621Z,64.80
2022-10-28T06:52:26.332Z,61.20
2022-10-28T06:54:54.342Z,63.00
2022-10-28T06:57:24.498Z,62.90
2022-10-28T06:59:56.198Z,62.70
2022-10-28T07:02:26.081Z,62.60
2022-10-28T07:04:53.929Z,62.10
2022-10-28T07:07:23.770Z,63.70
2022-10-28T07:09:51.631Z,65.30
2022-10-28T07:12:19.586Z,63.70
2022-10-28T07:14:47.859Z,65.20
2022-10-28T07:17:15.631Z,64.60
2022-10-28T07:19:43.993Z,65.80
2022-10-28T07:22:16.753Z,67.50
2022-10-28T07:24:44.634Z,69.20
2022-10-28T07:27:12.588Z,62.50
2022-10-28T07:29:49.777Z,62.50
2022-10-28T07:32:18.119Z,62.20
2022-10-28T07:34:46.215Z,62.70
2022-10-28T07:37:17.761Z,62.00
2022-10-28T07:39:49.540Z,62.10
2022-10-28T07:42:18.072Z,64.20
2022-10-28T07:44:45.998Z,62.10
2022-10-28T07:47:13.914Z,63.90
2022-10-28T07:49:41.833Z,64.50
2022-10-28T07:52:10.103Z,62.10
2022-10-28T07:54:38.044Z,62.90
2022-10-28T07:57:05.972Z,62.90
2022-10-28T07:59:33.899Z,64.20
2022-10-28T08:02:01.765Z,61.80
2022-10-28T08:04:33.465Z,60.80
2022-10-28T08:07:01.878Z,61.80
2022-10-28T08:09:29.794Z,61.00
2022-10-28T08:11:57.922Z,61.50
2022-10-28T08:14:26.588Z,64.60
2022-10-28T08:16:54.699Z,61.60
2022-10-28T08:19:22.790Z,61.30
2022-10-28T08:21:50.323Z,63.10
2022-10-28T08:24:18.104Z,62.50
2022-10-28T08:26:46.191Z,63.90
2022-10-28T08:29:14.604Z,62.90
2022-10-28T08:31:42.924Z,64.00
2022-10-28T08:34:10.563Z,61.50
2022-10-28T08:36:38.209Z,65.80
2022-10-28T08:39:06.045Z,66.80
2022-10-28T08:41:36.773Z,62.30
2022-10-28T08:44:13.696Z,64.20
2022-10-28T08:46:53.362Z,63.50
2022-10-28T08:49:23.111Z,62.60
2022-10-28T08:51:57.465Z,62.00
2022-10-28T08:54:31.333Z,65.00
2022-10-28T08:57:01.963Z,65.90
2022-10-28T08:59:36.679Z,63.10
2022-10-28T09:02:15.763Z,63.20
2022-10-28T09:04:44.853Z,61.80
2022-10-28T09:07:19.913Z,64.40
2022-10-28T09:09:48.799Z,64.40
2022-10-28T09:12:30.923Z,63.00
2022-10-28T09:15:05.381Z,63.60
2022-10-28T09:17:34.298Z,64.60
2022-10-28T09:20:15.769Z,66.50
2022-10-28T09:22:46.795Z,67.90
2022-10-28T09:25:15.253Z,66.00
2022-10-28T09:27:48.978Z,65.50
2022-10-28T09:30:36.593Z,66.50
2022-10-28T09:33:04.336Z,66.20
2022-10-28T09:35:34.714Z,67.20
2022-10-28T09:38:09.302Z,65.50
2022-10-28T09:40:37.509Z,66.40
2022-10-28T09:43:27.561Z,64.10
2022-10-28T09:45:58.389Z,66.00
2022-10-28T09:48:38.873Z,63.70
2022-10-28T09:51:06.842Z,64.50
2022-10-28T09:53:40.920Z,63.80
2022-10-28T09:58:36.880Z,65.70
2022-10-28T10:01:05.508Z,66.40
2022-10-28T10:03:34.489Z,66.90
2022-10-28T10:06:12.579Z,67.00
2022-10-28T10:08:42.206Z,67.10
2022-10-28T10:11:24.712Z,67.40
2022-10-28T10:13:52.975Z,68.50
2022-10-28T10:16:43.054Z,70.10
2022-10-28T10:19:14.238Z,70.60
2022-10-28T10:21:43.557Z,70.70
2022-10-28T10:24:23.600Z,71.80
2022-10-28T10:26:56.577Z,72.00
2022-10-28T10:29:26.733Z,74.10
2022-10-28T10:32:13.560Z,74.00
2022-10-28T10:34:46.083Z,74.50
2022-10-28T10:37:18.950Z,74.40
2022-10-28T10:39:46.870Z,75.40
2022-10-28T10:42:18.580Z,74.90
2022-10-28T10:44:48.157Z,75.00
2022-10-28T10:47:20.986Z,75.90
2022-10-28T10:49:50.083Z,75.60
2022-10-28T10:52:26.434Z,76.40
2022-10-28T10:54:58.818Z,75.80
2022-10-28T10:57:26.599Z,77.00
2022-10-28T10:59:55.951Z,77.00
2022-10-28T11:02:30.165Z,76.90
2022-10-28T11:05:07.798Z,76.80
2022-10-28T11:07:39.001Z,77.30
2022-10-28T11:10:16.279Z,76.80
2022-10-28T11:12:52.406Z,77.10
2022-10-28T11:15:20.957Z,77.30
2022-10-28T11:17:57.527Z,77.70
2022-10-28T11:20:34.586Z,78.40
2022-10-28T11:23:09.862Z,78.30
2022-10-28T11:25:38.894Z,78.40
2022-10-28T11:28:30.576Z,78.70
2022-10-28T11:31:10.764Z,78.80
2022-10-28T11:33:59.021Z,79.60
2022-10-28T11:36:33.632Z,78.90
2022-10-28T11:39:16.288Z,80.00
2022-10-28T11:41:46.913Z,80.40
2022-10-28T11:44:32.769Z,80.10
2022-10-28T11:47:18.603Z,80.20
2022-10-28T11:49:49.453Z,80.40
2022-10-28T11:52:21.454Z,80.20
2022-10-28T11:55:18.231Z,80.10
2022-10-28T11:57:55.196Z,79.80
2022-10-28T12:00:22.867Z,79.70
2022-10-28T12:03:06.232Z,79.80
2022-10-28T12:05:39.128Z,79.80
2022-10-28T12:08:25.255Z,80.10
2022-10-28T12:11:11.341Z,79.70
2022-10-28T12:13:45.039Z,79.80
2022-10-28T12:16:15.567Z,79.90
2022-10-28T12:18:51.942Z,79.60
2022-10-28T12:21:32.202Z,79.60
2022-10-28T12:24:01.041Z,79.80
2022-10-28T12:26:49.409Z,79.80
2022-10-28T12:29:20.526Z,79.90
2022-10-28T12:31:52.410Z,79.80
2022-10-28T12:34:23.540Z,80.10
2022-10-28T12:36:59.258Z,79.90
2022-10-28T12:39:31.784Z,79.90
2022-10-28T12:42:11.856Z,79.80
2022-10-28T12:44:40.306Z,79.60
2022-10-28T12:47:21.363Z,79.70
2022-10-28T12:49:49.651Z,79.80
2022-10-28T12:52:36.491Z,79.80
2022-10-28T12:57:44.646Z,79.80
2022-10-28T13:00:16.445Z,79.80
2022-10-28T13:03:04.042Z,79.70
2022-10-28T13:05:41.531Z,79.70
2022-10-28T13:08:09.990Z,79.90
2022-10-28T13:10:49.662Z,79.90
2022-10-28T13:13:30.326Z,79.90
2022-10-28T13:16:11.368Z,80.00
2022-10-28T13:18:49.004Z,80.60
2022-10-28T13:21:29.080Z,79.90
2022-10-28T13:23:59.550Z,79.90
2022-10-28T13:26:30.117Z,80.00
2022-10-28T13:28:59.579Z,80.00
2022-10-28T13:31:45.157Z,80.00
2022-10-28T13:34:14.480Z,80.00
2022-10-28T13:36:46.397Z,80.00
2022-10-28T13:39:25.390Z,80.00
2022-10-28T13:42:11.616Z,80.00
2022-10-28T13:45:00.923Z,80.00
2022-10-28T13:47:31.249Z,80.30
2022-10-28T13:50:08.655Z,80.40
2022-10-28T13:52:47.193Z,80.40
2022-10-28T13:55:14.778Z,80.80
2022-10-28T13:57:45.001Z,81.10
2022-10-28T14:00:18.815Z,81.10
2022-10-28T14:02:46.695Z,81.30
2022-10-28T14:05:16.773Z,81.30
2022-10-28T14:07:58.859Z,81.60
2022-10-28T14:10:28.086Z,81.80
2022-10-28T14:13:27.922Z,82.00
2022-10-28T14:16:31.055Z,81.80
2022-10-28T14:19:04.225Z,82.20
2022-10-28T14:21:45.452Z,82.40
2022-10-28T14:24:33.162Z,82.30
2022-10-28T14:27:10.081Z,82.30
2022-10-28T14:29:43.742Z,82.50
2022-10-28T14:32:31.320Z,82.70
2022-10-28T14:35:18.981Z,82.70
2022-10-28T14:37:46.511Z,82.70
2022-10-28T14:40:23.820Z,83.00
2022-10-28T14:43:06.658Z,83.10
2022-10-28T14:45:52.471Z,83.10
2022-10-28T14:48:42.410Z,82.80
2022-10-28T14:51:13.523Z,82.50
2022-10-28T14:53:41.962Z,82.80
2022-10-28T14:56:33.441Z,82.90
2022-10-28T14:59:07.092Z,82.80
2022-10-28T15:01:53.266Z,82.80
2022-10-28T15:04:22.616Z,82.70
2022-10-28T15:06:51.338Z,82.90
2022-10-28T15:09:19.104Z,82.60
2022-10-28T15:11:48.243Z,82.70
2022-10-28T15:14:23.918Z,82.60
2022-10-28T15:16:51.444Z,82.90
2022-10-28T15:19:26.064Z,82.90
2022-10-28T15:22:01.322Z,82.90
2022-10-28T15:24:29.959Z,82.60
2022-10-28T15:26:57.770Z,82.50
2022-10-28T15:29:25.789Z,82.30
2022-10-28T15:32:09.549Z,82.50
2022-10-28T15:34:43.408Z,82.20
2022-10-28T15:37:11.529Z,82.30
2022-10-28T15:39:39.975Z,82.20
2022-10-28T15:42:28.583Z,82.20
2022-10-28T15:44:57.600Z,82.30
2022-10-28T15:47:35.385Z,82.40
2022-10-28T15:50:32.187Z,82.60
2022-10-28T15:53:12.353Z,82.60
2022-10-28T15:58:35.314Z,82.50
2022-10-28T16:01:03.045Z,82.70
2022-10-28T16:03:46.894Z,83.20
2022-10-28T16:06:26.186Z,83.70
2022-10-28T16:09:04.017Z,83.90
2022-10-28T16:11:33.372Z,83.60
2022-10-28T16:14:04.235Z,83.50
2022-10-28T16:16:33.007Z,84.60
2022-10-28T16:19:08.448Z,84.30
2022-10-28T16:21:37.352Z,84.30
2022-10-28T16:24:04.956Z,84.00
2022-10-28T16:26:35.660Z,84.60
2022-10-28T16:29:03.205Z,84.40
2022-10-28T16:31:32.392Z,85.10
2022-10-28T16:34:00.056Z,85.10
2022-10-28T16:36:28.987Z,85.20
2022-10-28T16:38:56.989Z,85.50
2022-10-28T16:41:24.868Z,85.30
2022-10-28T16:43:52.370Z,85.30
2022-10-28T16:46:20.276Z,85.60
2022-10-28T16:48:47.935Z,85.30
2022-10-28T16:51:17.855Z,85.40
2022-10-28T16:53:50.147Z,85.10
2022-10-28T16:56:18.287Z,85.30
2022-10-28T16:58:46.445Z,85.20
2022-10-28T17:01:18.473Z,85.00
2022-10-28T17:03:47.029Z,84.90
2022-10-28T17:06:15.023Z,84.80
2022-10-28T17:09:01.853Z,84.90
2022-10-28T17:13:58.577Z,85.00
2022-10-28T17:16:26.176Z,85.00
2022-10-28T17:18:54.629Z,85.00
2022-10-28T17:21:22.167Z,85.50
2022-10-28T17:23:49.721Z,85.50
2022-10-28T17:26:17.460Z,85.50
2022-10-28T17:28:45.852Z,85.50
2022-10-28T17:31:19.139Z,85.50
2022-10-28T17:33:52.944Z,85.80
2022-10-28T17:36:20.523Z,85.80
2022-10-28T17:38:49.067Z,85.90
2022-10-28T17:41:16.926Z,85.70
2022-10-28T17:43:44.812Z,86.20
2022-10-28T17:46:13.648Z,85.80
2022-10-28T17:48:42.160Z,85.60
2022-10-28T17:51:09.715Z,86.30
2022-10-28T17:53:37.759Z,86.00
2022-10-28T17:56:06.356Z,85.80
2022-10-28T17:58:34.017Z,85.80
2022-10-28T18:01:09.708Z,85.50
2022-10-28T18:03:39.188Z,85.40
2022-10-28T18:06:08.119Z,85.10
2022-10-28T18:08:37.660Z,84.90
2022-10-28T18:11:05.826Z,85.00
2022-10-28T18:13:34.578Z,85.20
2022-10-28T18:16:12.630Z,85.70
2022-10-28T18:18:42.485Z,85.60
2022-10-28T18:21:11.407Z,85.90
2022-10-28T18:23:40.626Z,86.00
2022-10-28T18:26:10.403Z,85.80
2022-10-28T18:28:38.239Z,85.60
2022-10-28T18:31:09.359Z,85.50
2022-10-28T18:33:37.396Z,86.00
2022-10-28T18:36:07.104Z,86.00
2022-10-28T18:38:34.684Z,86.00
2022-10-28T18:41:02.378Z,86.40
2022-10-28T18:43:29.920Z,85.90
2022-10-28T18:46:00.853Z,85.90
2022-10-28T18:48:28.576Z,86.10
2022-10-28T18:51:00.334Z,86.20
2022-10-28T18:53:28.143Z,86.20
2022-10-28T18:56:00.340Z,86.20
2022-10-28T18:58:28.233Z,86.80
2022-10-28T19:01:03.697Z,86.80
2022-10-28T19:03:32.823Z,86.10
2022-10-28T19:06:19.111Z,86.80
2022-10-28T19:08:50.473Z,87.00
2022-10-28T19:11:18.079Z,87.10
2022-10-28T19:13:45.722Z,86.60
2022-10-28T19:16:13.895Z,86.70
2022-10-28T19:18:41.490Z,87.80
2022-10-28T19:21:14.466Z,86.60
2022-10-28T19:23:42.394Z,86.20
2022-10-28T19:26:11.890Z,86.40
2022-10-28T19:28:40.725Z,86.50
2022-10-28T19:31:09.879Z,86.70
2022-10-28T19:33:40.808Z,87.00
2022-10-28T19:36:10.974Z,87.50
2022-10-28T19:38:39.101Z,86.90
2022-10-28T19:41:08.457Z,87.00
2022-10-28T19:43:37.335Z,87.10
2022-10-28T19:46:06.137Z,87.20
2022-10-28T19:48:33.721Z,86.80
2022-10-28T19:51:01.435Z,86.90
2022-10-28T19:53:29.142Z,86.80
2022-10-28T19:56:00.838Z,86.90
2022-10-28T19:58:29.057Z,87.10
2022-10-28T20:01:00.431Z,87.10
2022-10-28T20:03:30.463Z,87.00
2022-10-28T20:06:06.511Z,87.50
2022-10-28T20:08:35.353Z,87.90
2022-10-28T20:11:05.300Z,86.90
2022-10-28T20:13:33.364Z,86.30
2022-10-28T20:16:01.803Z,86.70
2022-10-28T20:18:34.451Z,87.90
2022-10-28T20:21:14.655Z,86.80
2022-10-28T20:23:42.936Z,87.10
2022-10-28T20:26:11.937Z,86.80
2022-10-28T20:28:39.940Z,87.10
2022-10-28T20:31:10.370Z,87.10
2022-10-28T20:33:38.946Z,87.60
2022-10-28T20:36:07.543Z,87.10
2022-10-28T20:38:35.129Z,86.60
2022-10-28T20:41:02.695Z,86.50
2022-10-28T20:43:30.414Z,86.60
2022-10-28T20:46:02.894Z,86.80
2022-10-28T20:48:31.441Z,86.60
2022-10-28T20:51:00.155Z,86.60
2022-10-28T20:53:28.692Z,86.70
2022-10-28T20:55:58.182Z,86.50
2022-10-28T20:58:28.190Z,86.50
2022-10-28T21:00:56.046Z,86.40
2022-10-28T21:03:23.627Z,86.20
2022-10-28T21:05:51.162Z,86.10
2022-10-28T21:08:18.845Z,86.00
2022-10-28T21:10:46.385Z,85.80
2022-10-28T21:13:14.190Z,85.80
2022-10-28T21:15:42.793Z,85.80
2022-10-28T21:18:10.340Z,86.00
2022-10-28T21:20:39.402Z,86.90
2022-10-28T21:23:07.405Z,86.30
2022-10-28T21:25:34.979Z,86.50
2022-10-28T21:28:02.536Z,86.40
2022-10-28T21:30:30.172Z,86.40
2022-10-28T21:32:58.407Z,86.20
2022-10-28T21:35:27.349Z,86.20
2022-10-28T21:37:56.324Z,86.50
2022-10-28T21:40:24.377Z,86.50
2022-10-28T21:42:52.061Z,86.70
2022-10-28T21:45:19.837Z,86.80
2022-10-28T21:47:47.644Z,87.10
2022-10-28T21:50:16.026Z,87.10
2022-10-28T21:52:43.656Z,87.20
2022-10-28T21:55:20.757Z,87.30
2022-10-28T21:57:57.313Z,87.40
2022-10-28T22:00:30.327Z,87.90
2022-10-28T22:02:58.202Z,87.50
2022-10-28T22:05:25.897Z,87.50
2022-10-28T22:07:54.247Z,87.10
2022-10-28T22:10:22.309Z,86.70
2022-10-28T22:12:52.651Z,86.80
2022-10-28T22:15:20.234Z,86.80
2022-10-28T22:17:48.005Z,86.90
2022-10-28T22:20:16.309Z,87.70
2022-10-28T22:22:44.782Z,87.10
2022-10-28T22:25:12.506Z,87.10
2022-10-28T22:27:40.219Z,87.60
2022-10-28T22:30:08.560Z,87.90
2022-10-28T22:32:39.308Z,87.40
2022-10-28T22:35:07.521Z,87.50
2022-10-28T22:37:35.525Z,87.20
2022-10-28T22:40:03.757Z,86.70
2022-10-28T22:42:31.356Z,86.90
2022-10-28T22:44:59.269Z,86.90
2022-10-28T22:47:28.063Z,87.30
2022-10-28T22:49:57.982Z,87.10
2022-10-28T22:52:25.609Z,88.60
2022-10-28T22:54:53.176Z,87.80
2022-10-28T22:57:21.072Z,88.60
2022-10-28T22:59:49.717Z,87.80
2022-10-28T23:02:17.619Z,88.50
2022-10-28T23:04:45.580Z,87.40
2022-10-28T23:07:13.487Z,87.80
2022-10-28T23:09:41.488Z,88.00
2022-10-28T23:12:09.446Z,88.00
2022-10-28T23:14:37.072Z,88.90
2022-10-28T23:17:05.167Z,88.60
2022-10-28T23:19:32.691Z,88.30
2022-10-28T23:22:00.485Z,88.20
2022-10-28T23:24:29.146Z,87.90
2022-10-28T23:29:25.143Z,87.90
2022-10-28T23:31:53.650Z,88.20
2022-10-28T23:34:21.538Z,88.00
2022-10-28T23:36:54.623Z,88.90
2022-10-28T23:39:27.865Z,88.60
2022-10-28T23:41:55.545Z,87.70
2022-10-28T23:44:23.098Z,87.30
2022-10-28T23:46:51.578Z,87.30
2022-10-28T23:49:19.717Z,87.50
2022-10-28T23:51:47.699Z,87.60
2022-10-28T23:54:15.350Z,87.60
2022-10-28T23:56:43.856Z,87.70
2022-10-28T23:59:12.707Z,87.50
